Time;durP1;ratioP1;P1;durP2;ratioP2;P2;SDS_P1;SDS_P2;PMS_P1;PMS_P2;Temp;Humidity;BMP_temperature;BMP_pressure;BME280_temperature;BME280_humidity;BME280_pressure;Samples;Min_cycle;Max_cycle;Signal;HPM_P1;HPM_P2
2022/12/26 00:02:39;;;;;;;293.05;116.32;;;;;;;11.03;84.23;99305.97;4929899;29;20052;-65
2022/12/26 00:05:28;;;;;;;289.35;111.55;;;;;;;10.83;84.94;99310.44;4910171;29;20056;-64
2022/12/26 00:08:10;;;;;;;289.35;115.00;;;;;;;10.92;84.71;99315.44;4910390;29;20115;-63
2022/12/26 00:10:59;;;;;;;295.50;114.55;;;;;;;10.95;84.53;99316.91;4911206;29;20127;-64
2022/12/26 00:13:41;;;;;;;312.40;118.65;;;;;;;10.57;85.61;99318.19;4911121;29;20059;-63
2022/12/26 00:16:32;;;;;;;309.35;115.93;;;;;;;10.61;85.58;99326.66;4918682;29;20459;-64
2022/12/26 00:19:14;;;;;;;309.75;120.68;;;;;;;10.95;83.90;99324.97;4896485;29;20116;-62
2022/12/26 00:22:03;;;;;;;275.90;114.60;;;;;;;11.02;83.50;99324.97;4927948;29;20574;-64
2022/12/26 00:24:53;;;;;;;285.05;109.82;;;;;;;11.01;83.26;99334.06;4907871;29;20559;-64
2022/12/26 00:27:42;;;;;;;289.02;110.88;;;;;;;11.16;83.52;99335.56;4921465;29;20399;-64
2022/12/26 00:30:24;;;;;;;285.10;113.43;;;;;;;11.24;83.53;99341.78;4918149;29;20115;-66
2022/12/26 00:33:13;;;;;;;292.27;110.03;;;;;;;10.94;83.72;99345.59;4910633;29;20063;-64
2022/12/26 00:36:01;;;;;;;280.65;110.25;;;;;;;11.15;82.48;99352.69;4920847;29;20107;-65
2022/12/26 00:38:51;;;;;;;264.65;105.53;;;;;;;11.06;82.28;99363.81;4914277;29;20065;-64
2022/12/26 00:41:33;;;;;;;282.58;108.53;;;;;;;11.25;82.33;99360.38;4915327;29;20056;-65
2022/12/26 00:44:22;;;;;;;250.88;104.80;;;;;;;11.13;82.05;99364.69;4904260;29;20052;-66
2022/12/26 00:47:10;;;;;;;251.73;105.82;;;;;;;11.11;82.75;99367.56;4922350;28;20103;-64
2022/12/26 00:50:05;;;;;;;277.02;107.65;;;;;;;11.17;81.84;99364.06;4924000;29;20051;-65
2022/12/26 00:52:48;;;;;;;257.30;105.50;;;;;;;10.85;81.78;99356.72;4941062;29;20132;-65
2022/12/26 00:55:37;;;;;;;255.18;103.13;;;;;;;11.29;82.12;99358.97;4922703;29;20047;-64
2022/12/26 00:58:19;;;;;;;246.25;100.70;;;;;;;11.12;80.85;99358.50;4938385;29;20067;-64
2022/12/26 01:01:19;;;;;;;246.70;102.65;;;;;;;10.82;82.27;99357.94;4915133;29;20424;-61
2022/12/26 01:04:03;;;;;;;247.82;98.03;;;;;;;11.24;82.06;99355.22;4924206;29;20609;-64
2022/12/26 01:06:53;;;;;;;255.60;100.15;;;;;;;10.83;82.26;99361.47;4937018;29;20602;-65
2022/12/26 01:09:42;;;;;;;264.98;102.68;;;;;;;10.90;81.46;99360.47;4935337;29;20114;-64
2022/12/26 01:12:24;;;;;;;247.75;99.80;;;;;;;10.98;81.51;99362.13;4935154;29;20130;-66
2022/12/26 01:15:14;;;;;;;262.75;100.68;;;;;;;11.17;80.69;99361.38;4933874;29;20494;-64
2022/12/26 01:17:58;;;;;;;266.00;105.20;;;;;;;10.94;82.17;99363.56;4940063;29;20071;-65
2022/12/26 01:20:47;;;;;;;267.23;106.47;;;;;;;10.76;82.75;99372.19;4934316;29;20158;-64
2022/12/26 01:23:42;;;;;;;264.70;101.03;;;;;;;10.67;82.60;99363.44;4934802;29;20047;-64
2022/12/26 01:26:18;;;;;;;245.85;101.10;;;;;;;10.80;82.83;99381.50;4937482;29;20059;-66
2022/12/26 01:29:15;;;;;;;252.83;100.47;;;;;;;10.92;82.44;99379.88;4940049;29;20043;-64
2022/12/26 01:31:50;;;;;;;246.27;100.25;;;;;;;10.95;82.06;99378.69;4933422;29;20286;-64
2022/12/26 01:34:39;;;;;;;256.52;99.93;;;;;;;10.94;81.44;99393.94;4937367;29;20066;-66
2022/12/26 01:37:22;;;;;;;253.80;102.07;;;;;;;11.01;81.80;99393.97;4937653;29;20058;-65
2022/12/26 01:40:12;;;;;;;248.02;103.43;;;;;;;11.06;81.51;99402.28;4936583;29;20054;-64
2022/12/26 01:42:54;;;;;;;242.98;99.00;;;;;;;10.96;81.77;99405.31;4938197;29;20055;-65
2022/12/26 01:45:48;;;;;;;250.75;100.07;;;;;;;11.16;81.47;99409.97;4937100;29;20071;-64
2022/12/26 01:48:36;;;;;;;241.07;98.28;;;;;;;11.36;80.11;99408.16;4930606;28;20105;-64
2022/12/26 01:51:29;;;;;;;213.45;90.47;;;;;;;11.26;80.42;99407.72;4946018;29;20129;-64
2022/12/26 01:54:19;;;;;;;230.20;96.32;;;;;;;11.28;80.14;99413.72;4920805;29;20126;-63
2022/12/26 01:57:34;;;;;;;218.05;92.40;;;;;;;11.32;80.43;99406.91;4928051;29;20119;-63
2022/12/26 02:00:11;;;;;;;210.50;91.60;;;;;;;11.24;79.30;99403.59;4928166;29;20712;-63
2022/12/26 02:06:03;;;;;;;227.23;92.30;;;;;;;11.03;80.98;99418.78;4936887;29;20048;-64
2022/12/26 02:08:53;;;;;;;218.27;95.25;;;;;;;11.03;81.08;99418.78;4942315;29;20061;-64
2022/12/26 02:12:07;;;;;;;226.98;93.78;;;;;;;10.61;82.43;99422.47;4944582;29;20053;-64
2022/12/26 02:15:17;;;;;;;227.38;92.13;;;;;;;10.92;81.60;99432.78;4946944;29;20499;-64
2022/12/26 02:18:06;;;;;;;213.40;90.95;;;;;;;10.81;81.26;99431.47;4947504;29;20694;-64
2022/12/26 02:21:22;;;;;;;218.10;91.38;;;;;;;11.15;80.75;99438.66;4935324;29;20543;-64
2022/12/26 02:24:49;;;;;;;222.45;92.10;;;;;;;11.20;80.94;99434.53;4931406;29;20071;-64
2022/12/26 02:27:59;;;;;;;227.50;92.03;;;;;;;11.23;80.58;99447.59;4937019;29;20046;-64
2022/12/26 02:31:29;;;;;;;220.93;93.57;;;;;;;11.23;80.92;99451.09;4935349;29;20551;-64
2022/12/26 02:34:39;;;;;;;219.43;91.35;;;;;;;11.19;79.97;99454.38;4888744;29;20581;-64
2022/12/26 02:37:23;;;;;;;205.27;85.72;;;;;;;11.16;80.26;99458.31;4946487;29;20051;-64
2022/12/26 02:40:33;;;;;;;228.38;92.00;;;;;;;11.16;81.13;99458.31;4937487;29;20267;-64
2022/12/26 02:43:37;;;;;;;230.63;91.20;;;;;;;11.03;80.47;99472.50;4928548;29;20047;-64
2022/12/26 02:47:04;;;;;;;233.93;89.95;;;;;;;11.26;80.25;99466.00;4904636;29;20059;-64
2022/12/26 03:19:05;;;;;;;232.70;91.57;;;;;;;10.78;81.18;99517.78;4947421;29;20043;-64
2022/12/26 03:21:55;;;;;;;224.10;90.50;;;;;;;10.72;81.52;99519.41;4927737;29;20240;-65
2022/12/26 03:26:38;;;;;;;240.43;94.95;;;;;;;10.90;80.58;99532.31;4940897;29;20043;-64
2022/12/26 03:27:53;;;;;;;246.93;94.40;;;;;;;11.05;79.53;99532.22;4927653;29;20111;-64
2022/12/26 03:30:50;;;;;;;247.02;95.15;;;;;;;11.21;80.04;99533.75;4939285;29;20046;-63
2022/12/26 03:37:21;;;;;;;229.43;91.30;;;;;;;11.01;79.96;99547.06;4940931;29;20098;-64
2022/12/26 04:19:34;;;;;;;205.80;84.13;;;;;;;11.45;78.57;99629.22;4940297;28;20050;-64
2022/12/26 04:45:28;;;;;;;186.63;81.82;;;;;;;12.07;76.93;99648.16;4938696;28;20534;-64
2022/12/26 04:51:37;;;;;;;179.63;82.20;;;;;;;11.94;76.84;99652.47;4946894;28;20075;-61
2022/12/26 04:54:26;;;;;;;185.25;83.90;;;;;;;12.23;75.56;99655.91;4944137;29;20047;-60
2022/12/26 04:57:10;;;;;;;179.93;82.28;;;;;;;11.90;75.87;99667.34;4936248;29;20055;-62
2022/12/26 04:59:58;;;;;;;174.63;82.95;;;;;;;12.09;76.65;99670.31;4942640;29;20077;-61
2022/12/26 05:12:04;;;;;;;194.35;84.05;;;;;;;12.79;73.69;99662.06;4933809;29;20059;-61
2022/12/26 05:14:47;;;;;;;175.50;82.80;;;;;;;12.77;72.93;99662.25;4929336;29;20052;-62
2022/12/26 05:29:42;;;;;;;174.40;82.63;;;;;;;12.91;71.88;99658.53;4927745;29;20051;-62
2022/12/26 05:35:31;;;;;;;182.77;88.40;;;;;;;13.36;71.15;99649.03;4928692;29;20691;-61
2022/12/26 05:38:21;;;;;;;189.02;87.75;;;;;;;13.15;71.30;99642.78;4927524;29;20051;-60
2022/12/26 05:41:10;;;;;;;197.88;87.57;;;;;;;13.22;71.03;99649.03;4927377;29;20114;-62
2022/12/26 05:43:52;;;;;;;192.40;89.05;;;;;;;13.59;69.34;99651.28;4929150;29;20157;-62
2022/12/26 05:46:42;;;;;;;193.77;89.35;;;;;;;14.21;69.06;99651.69;4943055;29;20047;-61
2022/12/26 05:49:31;;;;;;;187.07;89.45;;;;;;;14.19;67.87;99643.81;4945065;28;20094;-62
2022/12/26 05:52:20;;;;;;;192.30;91.18;;;;;;;14.15;68.26;99641.75;4931116;29;20052;-61
2022/12/26 05:55:09;;;;;;;194.13;90.93;;;;;;;14.42;68.52;99647.84;4925328;29;20110;-63
2022/12/26 05:57:51;;;;;;;200.13;93.70;;;;;;;15.00;66.43;99639.59;4931727;29;20063;-61
2022/12/26 06:00:39;;;;;;;198.68;91.43;;;;;;;14.54;66.06;99635.34;4944441;29;20546;-62
2022/12/26 06:03:22;;;;;;;198.73;94.18;;;;;;;14.26;67.91;99636.50;4935122;29;20066;-60
2022/12/26 06:06:17;;;;;;;216.15;96.15;;;;;;;15.10;67.29;99628.28;4926440;29;20151;-61
2022/12/26 06:08:55;;;;;;;204.02;95.05;;;;;;;14.78;66.17;99631.03;4938242;29;20059;-61
2022/12/26 06:11:44;;;;;;;210.07;99.90;;;;;;;14.43;67.26;99623.34;4936945;29;20122;-63
2022/12/26 06:14:30;;;;;;;220.38;105.45;;;;;;;15.43;65.05;99619.03;4945938;29;20062;-61
2022/12/26 06:17:25;;;;;;;230.50;104.72;;;;;;;15.66;63.73;99615.69;4941293;29;20043;-63
2022/12/26 06:20:00;;;;;;;233.00;107.65;;;;;;;15.39;64.89;99613.25;4927629;29;20086;-63
2022/12/26 06:22:50;;;;;;;244.27;111.70;;;;;;;15.55;63.92;99608.31;4934355;29;20567;-62
2022/12/26 06:25:32;;;;;;;264.23;113.32;;;;;;;15.07;64.48;99604.41;4939781;29;20075;-62
2022/12/26 06:28:22;;;;;;;241.55;110.35;;;;;;;15.38;64.65;99602.66;4933915;29;20135;-63
2022/12/26 06:31:14;;;;;;;238.45;109.70;;;;;;;15.85;63.28;99594.88;4936954;29;20055;-64
2022/12/26 06:34:04;;;;;;;238.20;104.07;;;;;;;15.54;64.44;99601.25;4937255;29;20536;-64
2022/12/26 06:36:54;;;;;;;226.48;104.78;;;;;;;15.87;63.18;99592.78;4937793;29;20051;-61
2022/12/26 06:39:36;;;;;;;239.73;108.40;;;;;;;15.56;63.57;99588.31;4928093;29;20134;-65
2022/12/26 06:42:25;;;;;;;233.57;105.68;;;;;;;16.30;62.61;99583.69;4931808;29;20056;-66
2022/12/26 06:45:14;;;;;;;239.32;107.88;;;;;;;15.86;62.50;99580.31;4931955;29;20407;-62
2022/12/26 06:47:58;;;;;;;250.52;107.93;;;;;;;16.47;62.12;99578.44;4928261;29;20059;-62
2022/12/26 06:50:55;;;;;;;232.88;106.78;;;;;;;16.55;62.23;99572.69;4930233;29;20071;-63
2022/12/26 06:53:45;;;;;;;252.13;109.22;;;;;;;16.34;61.48;99574.03;4929694;29;20071;-62
2022/12/26 06:56:33;;;;;;;246.27;111.90;;;;;;;16.18;60.98;99563.84;4946160;29;20055;-62
2022/12/26 06:59:29;;;;;;;241.75;109.78;;;;;;;16.14;61.71;99563.47;4935235;29;20051;-63
2022/12/26 07:02:05;;;;;;;236.35;110.38;;;;;;;16.81;60.02;99570.59;4933372;29;20061;-63
2022/12/26 07:05:00;;;;;;;243.60;112.60;;;;;;;16.74;59.76;99559.06;4936715;29;20142;-65
2022/12/26 07:07:35;;;;;;;249.93;112.20;;;;;;;16.84;60.40;99551.19;4941114;29;20066;-64
2022/12/26 07:10:24;;;;;;;235.23;109.30;;;;;;;17.02;60.24;99548.38;4926209;29;20071;-64
2022/12/26 07:13:08;;;;;;;229.43;108.18;;;;;;;16.90;59.22;99546.72;4943242;29;20404;-65
2022/12/26 07:16:00;;;;;;;237.68;110.35;;;;;;;16.78;60.18;99546.69;4936702;28;20066;-63
2022/12/26 07:18:43;;;;;;;254.38;111.82;;;;;;;15.68;61.78;99537.00;4944488;29;20159;-63
2022/12/26 07:21:33;;;;;;;239.82;110.40;;;;;;;16.04;62.89;99530.72;4936740;29;20055;-62
2022/12/26 07:24:26;;;;;;;245.80;113.10;;;;;;;16.14;61.73;99528.25;4940454;29;20133;-62
2022/12/26 07:27:07;;;;;;;247.55;118.70;;;;;;;16.87;60.47;99518.19;4939813;29;20507;-61
2022/12/26 07:29:57;;;;;;;239.82;113.90;;;;;;;17.07;59.66;99517.84;4925191;29;20056;-63
2022/12/26 07:32:38;;;;;;;265.27;115.78;;;;;;;16.27;61.29;99513.72;4937792;29;20055;-63
2022/12/26 07:35:28;;;;;;;249.35;114.28;;;;;;;16.82;60.65;99505.34;4941238;29;20051;-62
2022/12/26 07:38:11;;;;;;;240.20;113.68;;;;;;;17.15;60.36;99503.09;4937187;29;20047;-64
2022/12/26 07:41:56;;;;;;;254.63;111.53;;;;;;;17.03;59.56;99503.09;4938191;29;20154;-63
2022/12/26 07:44:06;;;;;;;231.68;110.32;;;;;;;17.11;58.71;99491.88;4945961;29;20059;-63
2022/12/26 07:46:56;;;;;;;244.82;112.82;;;;;;;17.54;58.79;99497.94;4941319;29;20462;-64
2022/12/26 07:49:37;;;;;;;249.23;113.93;;;;;;;17.55;57.53;99491.44;4925264;29;20048;-63
2022/12/26 07:52:27;;;;;;;247.10;113.65;;;;;;;17.72;58.62;99491.50;4924618;29;20062;-64
2022/12/26 07:55:09;;;;;;;250.68;114.88;;;;;;;17.60;58.08;99499.69;4917304;29;20070;-65
2022/12/26 07:57:59;;;;;;;238.13;113.75;;;;;;;17.75;58.45;99491.84;4919680;29;20139;-64
2022/12/26 08:00:40;;;;;;;248.23;122.85;;;;;;;17.77;57.28;99484.28;4928464;29;20058;-64
2022/12/26 08:03:30;;;;;;;293.63;127.97;;;;;;;17.53;57.92;99478.09;4901447;29;20664;-64
2022/12/26 08:06:11;;;;;;;260.08;124.30;;;;;;;17.82;57.92;99480.84;4916766;29;20671;-64
2022/12/26 08:09:01;;;;;;;275.20;129.23;;;;;;;17.66;58.38;99470.78;4910189;29;20491;-63
2022/12/26 08:11:43;;;;;;;289.15;140.25;;;;;;;17.63;58.91;99468.53;4917100;29;20071;-63
2022/12/26 08:14:33;;;;;;;297.67;143.82;;;;;;;17.80;58.27;99459.34;4909791;29;20056;-63
2022/12/26 08:17:15;;;;;;;307.55;147.80;;;;;;;17.84;58.03;99459.72;4915241;29;20070;-64
2022/12/26 08:20:06;;;;;;;309.00;143.20;;;;;;;17.93;57.84;99454.75;4919433;29;20087;-63
2022/12/26 08:22:47;;;;;;;293.35;141.88;;;;;;;17.69;59.27;99454.78;4915805;29;20070;-63
2022/12/26 08:25:38;;;;;;;305.65;144.50;;;;;;;17.88;59.02;99452.75;4911062;29;20083;-63
2022/12/26 08:28:21;;;;;;;322.15;146.25;;;;;;;17.79;59.15;99448.75;4918660;29;20054;-63
2022/12/26 08:31:15;;;;;;;305.67;143.02;;;;;;;17.92;59.04;99453.06;4920278;29;20097;-63
2022/12/26 08:33:57;;;;;;;289.08;143.05;;;;;;;17.65;58.65;99447.41;4920120;29;20075;-63
2022/12/26 08:36:47;;;;;;;283.83;142.50;;;;;;;17.66;58.38;99449.06;4918452;29;20483;-62
2022/12/26 08:39:28;;;;;;;291.10;141.18;;;;;;;17.59;59.00;99454.59;4902922;29;20044;-62
2022/12/26 08:42:18;;;;;;;294.45;145.07;;;;;;;18.05;58.82;99454.66;4915197;29;20059;-63
2022/12/26 08:44:59;;;;;;;286.48;141.82;;;;;;;18.18;58.09;99446.22;4921326;29;20495;-62
2022/12/26 08:47:49;;;;;;;308.35;141.63;;;;;;;18.24;58.01;99438.97;4914799;29;20139;-64
2022/12/26 08:50:31;;;;;;;291.98;141.80;;;;;;;18.30;58.12;99449.66;4919504;29;20040;-62
2022/12/26 08:53:23;;;;;;;317.45;147.30;;;;;;;18.18;58.06;99441.59;4919488;29;20131;-62
2022/12/26 08:56:07;;;;;;;316.27;149.82;;;;;;;18.04;58.17;99450.28;4930009;29;20064;-64
2022/12/26 08:58:56;;;;;;;303.63;147.60;;;;;;;18.06;58.65;99451.72;4919920;29;20423;-61
2022/12/26 09:01:39;;;;;;;311.38;149.48;;;;;;;18.04;58.23;99451.13;4918146;29;20078;-62
2022/12/26 09:04:28;;;;;;;308.42;144.25;;;;;;;17.85;58.49;99441.56;4919974;29;20056;-61
2022/12/26 09:07:09;;;;;;;275.00;136.75;;;;;;;17.95;58.84;99444.44;4916879;29;20058;-63
2022/12/26 09:09:59;;;;;;;289.42;140.10;;;;;;;18.12;58.77;99442.56;4911357;29;20746;-61
2022/12/26 09:12:40;;;;;;;296.92;142.25;;;;;;;17.92;59.33;99439.50;4926359;29;20059;-63
2022/12/26 09:15:30;;;;;;;282.70;135.75;;;;;;;17.69;59.52;99443.13;4919707;29;20228;-63
2022/12/26 09:18:11;;;;;;;276.75;132.63;;;;;;;17.45;59.53;99447.84;4917185;29;20177;-63
2022/12/26 09:21:01;;;;;;;265.10;131.27;;;;;;;17.57;60.12;99441.28;4920713;29;20044;-63
2022/12/26 09:23:57;;;;;;;286.80;134.15;;;;;;;17.78;60.15;99441.66;4918518;29;20051;-62
2022/12/26 09:26:32;;;;;;;270.08;132.13;;;;;;;17.61;60.40;99447.88;4918662;29;20048;-64
2022/12/26 09:29:21;;;;;;;279.13;136.52;;;;;;;17.57;59.54;99446.69;4919404;29;20356;-63
2022/12/26 09:32:04;;;;;;;268.63;132.27;;;;;;;17.52;60.09;99443.91;4915072;29;20489;-62
2022/12/26 09:35:00;;;;;;;278.23;130.40;;;;;;;17.47;60.37;99454.66;4914039;29;20103;-63
2022/12/26 09:37:35;;;;;;;265.90;129.70;;;;;;;17.65;60.48;99447.41;4924122;29;20562;-64
2022/12/26 09:40:32;;;;;;;270.98;131.55;;;;;;;17.64;60.28;99446.56;4913262;29;20068;-64
2022/12/26 09:44:05;;;;;;;245.27;124.68;;;;;;;17.70;60.43;99445.59;4928447;29;20056;-65
2022/12/26 09:47:16;;;;;;;241.32;122.47;;;;;;;17.56;60.80;99441.50;4915390;29;20138;-65
2022/12/26 09:50:07;;;;;;;;;;;;;;;17.37;60.68;99451.75;4925915;29;20458;-63
2022/12/26 09:52:59;;;;;;;225.70;115.82;;;;;;;17.49;60.73;99447.09;4947619;29;20005;-64
2022/12/26 09:55:58;;;;;;;227.90;113.95;;;;;;;17.31;61.44;99445.41;4941243;29;20051;-64
2022/12/26 09:59:08;;;;;;;221.60;115.53;;;;;;;17.37;61.22;99444.44;4928631;29;20130;-65
2022/12/26 10:01:47;;;;;;;211.15;109.55;;;;;;;17.38;61.65;99443.34;4929033;29;20107;-65
2022/12/26 10:04:53;;;;;;;216.20;111.68;;;;;;;17.22;62.55;99436.78;4931496;29;20063;-65
2022/12/26 10:08:18;;;;;;;229.00;109.40;;;;;;;17.17;62.22;99438.56;4936900;29;20050;-66
2022/12/26 10:11:21;;;;;;;211.82;106.97;;;;;;;17.23;62.39;99434.91;4937711;29;20123;-67
2022/12/26 10:14:37;;;;;;;231.02;110.65;;;;;;;17.11;62.66;99437.63;4937605;29;20047;-65
2022/12/26 10:17:19;;;;;;;210.80;106.93;;;;;;;16.87;63.36;99441.44;4940633;29;20126;-65
2022/12/26 10:20:24;;;;;;;214.07;105.85;;;;;;;16.93;63.82;99433.22;4937242;29;20535;-61
2022/12/26 10:23:39;;;;;;;216.90;110.40;;;;;;;16.90;63.67;99432.84;4936322;29;20058;-62
2022/12/26 10:27:08;;;;;;;221.18;107.53;;;;;;;16.94;63.70;99426.69;4938317;29;20062;-64
2022/12/26 10:29:58;;;;;;;222.23;109.75;;;;;;;17.06;64.06;99434.00;4942540;29;20047;-62
2022/12/26 10:32:55;;;;;;;220.48;108.47;;;;;;;17.03;63.72;99441.53;4931914;29;20055;-64
2022/12/26 10:35:50;;;;;;;227.23;111.60;;;;;;;16.89;63.84;99434.75;4942155;28;20113;-57
2022/12/26 10:38:42;;;;;;;230.70;113.38;;;;;;;16.73;64.31;99438.13;4928770;29;20075;-61
2022/12/26 10:41:53;;;;;;;227.20;112.35;;;;;;;16.72;64.73;99439.19;4932294;29;20483;-62
2022/12/26 10:44:34;;;;;;;236.73;111.57;;;;;;;16.55;64.92;99450.75;4939172;29;20825;-60
2022/12/26 10:47:36;;;;;;;224.60;112.97;;;;;;;16.76;64.71;99452.03;4936754;29;20051;-66
2022/12/26 10:50:22;;;;;;;;;;;;;;;16.72;64.44;99444.59;4939562;29;20047;-65
2022/12/26 10:53:18;;;;;;;219.55;108.70;;;;;;;16.44;64.80;99446.13;4940193;29;19922;-64
2022/12/26 10:56:00;;;;;;;229.15;114.35;;;;;;;16.50;65.27;99437.06;4949780;29;20055;-66
2022/12/26 10:59:07;;;;;;;232.70;109.13;;;;;;;16.39;65.77;99443.31;4946844;29;20151;-62
2022/12/26 11:02:19;;;;;;;225.63;110.40;;;;;;;15.98;66.36;99450.41;4940657;29;20111;-61
2022/12/26 11:05:22;;;;;;;231.27;110.75;;;;;;;16.33;65.84;99441.53;4931809;29;20086;-63
2022/12/26 11:08:52;;;;;;;228.10;108.20;;;;;;;15.92;66.58;99445.94;4939637;29;20120;-63
2022/12/26 11:11:45;;;;;;;226.52;112.43;;;;;;;16.08;66.63;99439.84;4935451;29;20803;-64
2022/12/26 11:14:49;;;;;;;236.13;106.68;;;;;;;15.74;67.58;99444.09;4916549;29;20060;-63
2022/12/26 11:17:28;;;;;;;236.20;109.95;;;;;;;15.74;67.09;99439.50;4917402;29;20063;-64
2022/12/26 11:20:23;;;;;;;219.20;107.97;;;;;;;15.84;67.98;99439.78;4937477;29;20060;-63
2022/12/26 11:23:16;;;;;;;224.48;107.78;;;;;;;15.77;67.71;99433.63;4931006;29;20052;-63
2022/12/26 11:26:30;;;;;;;212.35;107.38;;;;;;;15.54;68.11;99438.94;4929676;29;20056;-63
2022/12/26 11:29:20;;;;;;;220.05;106.30;;;;;;;15.68;68.88;99439.56;4938672;29;20047;-63
2022/12/26 11:32:25;;;;;;;206.68;106.82;;;;;;;15.77;67.68;99439.03;4929975;29;20199;-65
2022/12/26 11:35:00;;;;;;;204.93;102.68;;;;;;;15.58;68.48;99437.41;4943526;29;20150;-63
2022/12/26 11:38:04;;;;;;;206.85;100.95;;;;;;;15.63;68.51;99449.22;4938743;29;20185;-63
2022/12/26 11:41:30;;;;;;;202.75;100.15;;;;;;;15.61;68.21;99434.25;4939093;29;20051;-65
2022/12/26 11:44:03;;;;;;;204.93;103.32;;;;;;;15.39;68.71;99440.16;4941223;29;20124;-63
2022/12/26 11:46:51;;;;;;;204.68;102.45;;;;;;;15.42;68.99;99439.72;4940701;29;20143;-63
2022/12/26 11:50:23;;;;;;;202.75;100.28;;;;;;;15.32;69.73;99435.88;4935647;29;20063;-64
2022/12/26 11:52:58;;;;;;;199.55;103.05;;;;;;;15.35;69.14;99438.97;4939264;29;20070;-62
2022/12/26 11:56:06;;;;;;;208.98;108.28;;;;;;;15.32;69.54;99439.41;4938623;29;20115;-63
2022/12/26 11:58:48;;;;;;;198.02;107.15;;;;;;;15.11;69.62;99445.28;4942825;29;20062;-64
2022/12/26 12:01:44;;;;;;;199.65;103.57;;;;;;;15.18;70.26;99446.03;4938955;29;20512;-61
2022/12/26 12:04:19;;;;;;;201.30;103.53;;;;;;;15.09;69.80;99453.59;4927136;29;20114;-64
2022/12/26 12:07:14;;;;;;;214.00;104.65;;;;;;;15.03;70.51;99455.34;4930987;29;20047;-65
2022/12/26 12:10:06;;;;;;;200.05;105.85;;;;;;;14.92;70.77;99458.78;4940161;29;20052;-61
2022/12/26 12:13:03;;;;;;;199.68;106.85;;;;;;;14.96;70.53;99454.59;4936304;29;20062;-63
2022/12/26 12:16:00;;;;;;;215.27;104.55;;;;;;;14.90;70.04;99452.78;4934797;29;20127;-62
2022/12/26 12:18:54;;;;;;;199.02;102.63;;;;;;;14.72;71.73;99461.69;4947290;29;20057;-62
2022/12/26 12:21:49;;;;;;;222.88;104.97;;;;;;;14.78;71.52;99457.28;4921945;29;20040;-62
2022/12/26 12:24:38;;;;;;;201.02;105.88;;;;;;;14.85;71.27;99469.66;4932358;29;20035;-63
2022/12/26 12:27:39;;;;;;;206.50;105.75;;;;;;;14.86;71.13;99465.94;4939377;29;20055;-62
2022/12/26 12:30:23;;;;;;;;;;;;;;;14.91;71.00;99467.94;4919171;29;20039;-62
2022/12/26 12:33:31;;;;;;;204.90;103.60;;;;;;;14.80;71.07;99461.41;4927250;29;20026;-63
2022/12/26 12:36:51;;;;;;;204.10;103.30;;;;;;;14.74;71.99;99458.78;4934343;29;20138;-62
2022/12/26 12:40:11;;;;;;;190.38;99.78;;;;;;;14.76;71.57;99468.31;4927120;29;20062;-60
2022/12/26 12:43:13;;;;;;;194.43;101.95;;;;;;;14.69;71.54;99464.81;4925905;29;20058;-62
2022/12/26 12:46:33;;;;;;;201.40;102.03;;;;;;;14.44;72.67;99472.91;4937715;29;20039;-62
2022/12/26 12:49:46;;;;;;;196.60;99.38;;;;;;;14.58;72.34;99479.06;4929180;29;20047;-60
2022/12/26 12:53:03;;;;;;;180.60;95.43;;;;;;;14.48;73.12;99488.47;4928711;29;20074;-62
2022/12/26 12:55:59;;;;;;;201.15;98.63;;;;;;;14.20;72.79;99483.50;4917104;29;20114;-60
2022/12/26 12:59:03;;;;;;;195.20;98.75;;;;;;;14.45;72.62;99486.22;4941542;29;20048;-60
2022/12/26 13:01:58;;;;;;;185.60;96.47;;;;;;;14.46;72.50;99497.81;4935994;29;20047;-63
2022/12/26 13:04:57;;;;;;;197.55;97.97;;;;;;;14.45;72.89;99498.91;4923914;29;20400;-62
2022/12/26 13:07:51;;;;;;;189.82;97.95;;;;;;;14.41;73.31;99489.59;4894701;29;20083;-61
2022/12/26 13:10:37;;;;;;;196.10;100.47;;;;;;;14.27;72.99;99489.69;4938410;29;20051;-61
2022/12/26 13:13:37;;;;;;;203.55;103.35;;;;;;;14.21;73.91;99498.63;4933227;28;20566;-62
2022/12/26 13:16:32;;;;;;;199.75;102.00;;;;;;;14.24;72.84;99500.09;4934440;29;20123;-58
2022/12/26 13:19:49;;;;;;;207.93;101.43;;;;;;;14.18;73.69;99503.66;4939557;29;20118;-58
2022/12/26 13:25:56;;;;;;;194.75;97.70;;;;;;;14.29;73.27;99493.00;4935104;29;20055;-63
2022/12/26 13:28:54;;;;;;;193.68;96.82;;;;;;;14.24;72.54;99495.50;4935464;29;20360;-62
2022/12/26 13:31:45;;;;;;;202.13;99.60;;;;;;;14.22;72.78;99497.59;4934605;29;20063;-60
2022/12/26 13:34:28;;;;;;;191.70;95.60;;;;;;;14.32;72.68;99499.81;4928724;29;20055;-61
2022/12/26 13:37:43;;;;;;;196.52;99.55;;;;;;;14.40;72.43;99506.81;4939469;29;20051;-63
2022/12/26 13:40:32;;;;;;;204.00;96.97;;;;;;;14.35;72.17;99504.78;4934353;29;20055;-62
2022/12/26 13:46:41;;;;;;;186.38;96.40;;;;;;;14.14;72.79;99514.06;4928718;29;20051;-63
2022/12/26 13:49:38;;;;;;;182.13;92.00;;;;;;;14.07;73.02;99510.56;4928243;29;20608;-63
2022/12/26 13:52:41;;;;;;;190.50;94.45;;;;;;;14.24;72.57;99517.09;4914212;29;20043;-63
2022/12/26 13:55:16;;;;;;;185.45;92.38;;;;;;;14.15;72.70;99523.81;4925465;29;20135;-64
2022/12/26 13:58:32;;;;;;;189.93;93.03;;;;;;;13.86;72.72;99526.03;4916273;29;20075;-62
2022/12/26 14:01:33;;;;;;;182.43;89.95;;;;;;;13.87;73.78;99533.13;4918152;29;20547;-61
2022/12/26 14:04:31;;;;;;;188.50;88.93;;;;;;;14.09;72.80;99539.00;4920605;29;20158;-60
2022/12/26 14:08:11;;;;;;;186.40;89.43;;;;;;;14.07;72.61;99545.66;4917139;29;20517;-62
2022/12/26 14:11:20;;;;;;;201.95;94.88;;;;;;;13.90;73.35;99554.25;4908218;29;20144;-61
2022/12/26 14:14:37;;;;;;;220.13;102.50;;;;;;;13.65;73.52;99559.53;4917344;29;20091;-65
2022/12/26 14:17:34;;;;;;;235.15;107.35;;;;;;;13.52;74.33;99562.28;4913004;29;20059;-61
2022/12/26 14:20:35;;;;;;;232.00;109.95;;;;;;;13.29;74.77;99571.66;4918332;29;20070;-61
2022/12/26 14:23:40;;;;;;;243.18;107.68;;;;;;;13.30;74.98;99569.84;4909345;29;20075;-61
2022/12/26 14:26:58;;;;;;;256.20;109.45;;;;;;;13.01;76.13;99566.53;4897769;29;20056;-62
2022/12/26 14:30:18;;;;;;;253.52;114.32;;;;;;;13.16;75.90;99574.38;4892454;29;20066;-62
2022/12/26 14:33:26;;;;;;;266.90;114.82;;;;;;;13.02;76.59;99586.22;4898650;29;20151;-61
2022/12/26 14:36:29;;;;;;;279.48;121.03;;;;;;;12.91;76.58;99579.56;4897901;29;20055;-60
2022/12/26 14:39:23;;;;;;;270.90;117.72;;;;;;;12.70;77.53;99580.59;4909451;29;20706;-61
2022/12/26 14:45:36;;;;;;;312.23;127.97;;;;;;;12.28;79.47;99588.81;4917103;29;20135;-61
2022/12/26 14:48:28;;;;;;;329.60;131.60;;;;;;;12.02;80.66;99586.91;4917017;29;20490;-61
2022/12/26 14:51:26;;;;;;;340.38;136.15;;;;;;;11.98;81.27;99596.41;4915104;29;20318;-60
2022/12/26 14:54:21;;;;;;;358.95;143.13;;;;;;;12.20;80.96;99591.72;4920798;29;20055;-61
2022/12/26 14:57:48;;;;;;;342.13;140.43;;;;;;;11.83;82.01;99590.31;4915363;29;20056;-62
2022/12/26 15:00:28;;;;;;;376.63;146.18;;;;;;;11.77;82.35;99597.34;4915160;29;20056;-61
2022/12/26 15:03:30;;;;;;;376.73;147.45;;;;;;;11.92;82.31;99597.19;4908757;29;20056;-62
2022/12/26 15:06:31;;;;;;;;;;;;;;;11.63;82.56;99590.22;4908801;29;20060;-62
2022/12/26 15:09:50;;;;;;;398.52;141.43;;;;;;;11.59;83.11;99594.34;4898184;29;20009;-63
2022/12/26 15:13:01;;;;;;;411.98;147.35;;;;;;;11.72;83.23;99605.16;4909036;29;20048;-62
2022/12/26 15:16:27;;;;;;;424.83;142.90;;;;;;;11.71;83.85;99598.97;4916906;29;20048;-61
2022/12/26 15:19:26;;;;;;;422.33;149.75;;;;;;;11.59;83.34;99605.91;4906069;29;20048;-63
2022/12/26 15:22:27;;;;;;;419.10;146.85;;;;;;;11.27;85.13;99610.06;4907381;29;20059;-63